Back to Top

Language: 

My Weather Underground Personal Weather Station Historical Data with Graphs...

Delerius Weather Station Historical Data
Daily Summary for November 29, 2017 Units:  Metric    English   Both
« Previous Day
Next Day »
Daily Weekly Monthly Yearly Custom
  High: Low: Average:
Temperature: 5.8 °C -0.1 °C 3.3 °C
Dew Point: 3.1 °C -2.7 °C 0.7 °C
Humidity: 87 % 79 % 83 %
Wind Speed: 20.9 km/h 1.6 km/h 11.6 km/h
Wind Gust: 38.6 km/h - -
Wind:- - NW
Pressure: 1015.1 hPa 1009.7 hPa -
Precipitation: 0 mm    
Historical Graphs
 
 
Tabular Data for November 29, 2017
Time Temperature Dew Point Pressure Wind Wind Speed Wind Gust Humidity Rainfall Rate (Hourly) solar Conditions
00:05 3.2 °C 0.9 °C 1010 hPa NW 11.3 km/h 17.7 km/h 85 % 0 mm 0 W/m2
00:10 3.3 °C 1 °C 1010 hPa NW 12.9 km/h 22.5 km/h 85 % 0 mm 0 W/m2
00:15 3.4 °C 0.9 °C 1010 hPa NW 14.5 km/h 25.7 km/h 84 % 0 mm 0 W/m2
00:20 3.5 °C 1.1 °C 1010 hPa NW 14.5 km/h 24.1 km/h 84 % 0 mm 0 W/m2
00:25 3.6 °C 1.2 °C 1010 hPa NW 16.1 km/h 30.6 km/h 84 % 0 mm 0 W/m2
00:30 3.6 °C 1 °C 1010 hPa NW 14.5 km/h 25.7 km/h 83 % 0 mm 0 W/m2
00:35 3.6 °C 1.2 °C 1010 hPa NW 11.3 km/h 19.3 km/h 84 % 0 mm 0 W/m2
00:50 3.6 °C 1 °C 1010 hPa WNW 14.5 km/h 24.1 km/h 83 % 0 mm 0 W/m2
00:55 3.6 °C 1 °C 1010 hPa WNW 11.3 km/h 16.1 km/h 83 % 0 mm 0 W/m2
01:00 3.5 °C 0.9 °C 1010 hPa WNW 12.9 km/h 20.9 km/h 83 % 0 mm 0 W/m2
01:05 3.5 °C 0.9 °C 1010 hPa NW 11.3 km/h 19.3 km/h 83 % 0 mm 0 W/m2
01:10 3.5 °C 0.9 °C 1010 hPa WNW 11.3 km/h 17.7 km/h 83 % 0 mm 0 W/m2
01:15 3.4 °C 0.8 °C 1009.7 hPa WNW 11.3 km/h 16.1 km/h 83 % 0 mm 0 W/m2
01:20 3.4 °C 0.8 °C 1009.7 hPa WNW 9.7 km/h 12.9 km/h 83 % 0 mm 0 W/m2
01:25 3.3 °C 0.7 °C 1009.7 hPa WNW 11.3 km/h 16.1 km/h 83 % 0 mm 0 W/m2
01:30 3.3 °C 0.8 °C 1009.7 hPa WNW 12.9 km/h 20.9 km/h 84 % 0 mm 0 W/m2
01:35 3.3 °C 0.8 °C 1009.7 hPa WNW 11.3 km/h 17.7 km/h 84 % 0 mm 0 W/m2
01:40 3.4 °C 0.9 °C 1009.7 hPa WNW 12.9 km/h 25.7 km/h 84 % 0 mm 0 W/m2
01:45 3.4 °C 0.9 °C 1009.7 hPa WNW 11.3 km/h 19.3 km/h 84 % 0 mm 0 W/m2
02:00 3.7 °C 1.1 °C 1009.7 hPa NW 14.5 km/h 24.1 km/h 83 % 0 mm 0 W/m2
02:05 3.8 °C 1.2 °C 1009.7 hPa NW 14.5 km/h 22.5 km/h 83 % 0 mm 0 W/m2
02:10 3.8 °C 1.2 °C 1009.7 hPa NW 14.5 km/h 22.5 km/h 83 % 0 mm 0 W/m2
02:20 3.7 °C 1.1 °C 1009.7 hPa NW 12.9 km/h 22.5 km/h 83 % 0 mm 0 W/m2
02:25 3.7 °C 1.1 °C 1009.7 hPa NW 12.9 km/h 20.9 km/h 83 % 0 mm 0 W/m2
02:35 3.6 °C 1 °C 1009.7 hPa NW 14.5 km/h 22.5 km/h 83 % 0 mm 0 W/m2
02:41 3.7 °C 1.1 °C 1009.7 hPa NW 11.3 km/h 19.3 km/h 83 % 0 mm 0 W/m2
02:46 3.7 °C 1.1 °C 1009.7 hPa NW 12.9 km/h 20.9 km/h 83 % 0 mm 0 W/m2
02:51 3.7 °C 1.1 °C 1009.7 hPa NW 12.9 km/h 19.3 km/h 83 % 0 mm 0 W/m2
03:01 3.7 °C 1.1 °C 1009.7 hPa NW 11.3 km/h 17.7 km/h 83 % 0 mm 0 W/m2
03:06 3.6 °C 1 °C 1009.7 hPa WNW 11.3 km/h 16.1 km/h 83 % 0 mm 0 W/m2
03:11 3.6 °C 1 °C 1009.7 hPa NW 9.7 km/h 16.1 km/h 83 % 0 mm 0 W/m2
03:19 3.4 °C 0.8 °C 1009.7 hPa WNW 11.3 km/h 17.7 km/h 83 % 0 mm 0 W/m2
03:20 3.4 °C 0.8 °C 1009.7 hPa WNW 11.3 km/h 20.9 km/h 83 % 0 mm 0 W/m2
03:24 3.3 °C 0.7 °C 1010 hPa WNW 9.7 km/h 16.1 km/h 83 % 0 mm 0 W/m2
03:27 3.3 °C 0.8 °C 1009.7 hPa WNW 9.7 km/h 16.1 km/h 84 % 0 mm 0 W/m2
03:29 3.3 °C 0.7 °C 1009.7 hPa NW 11.3 km/h 22.5 km/h 83 % 0 mm 0 W/m2
03:37 3.2 °C 0.8 °C 1009.7 hPa NW 11.3 km/h 19.3 km/h 84 % 0 mm 0 W/m2
03:42 3.1 °C 0.7 °C 1009.7 hPa WNW 11.3 km/h 19.3 km/h 84 % 0 mm 0 W/m2
03:47 3.1 °C 0.7 °C 1009.7 hPa NW 12.9 km/h 22.5 km/h 84 % 0 mm 0 W/m2
03:52 3.2 °C 0.8 °C 1009.7 hPa WNW 9.7 km/h 17.7 km/h 84 % 0 mm 0 W/m2
03:57 3.2 °C 0.8 °C 1009.7 hPa NW 9.7 km/h 14.5 km/h 84 % 0 mm 0 W/m2
04:02 3.3 °C 0.8 °C 1009.7 hPa NW 9.7 km/h 16.1 km/h 84 % 0 mm 0 W/m2
04:17 3.5 °C 0.9 °C 1009.7 hPa NW 12.9 km/h 20.9 km/h 83 % 0 mm 0 W/m2
04:22 3.5 °C 0.9 °C 1009.7 hPa NW 14.5 km/h 24.1 km/h 83 % 0 mm 0 W/m2
04:27 3.6 °C 1 °C 1009.7 hPa NW 9.7 km/h 14.5 km/h 83 % 0 mm 0 W/m2
04:32 3.5 °C 0.9 °C 1009.7 hPa NW 12.9 km/h 20.9 km/h 83 % 0 mm 0 W/m2
04:48 3.3 °C 0.7 °C 1009.7 hPa NW 9.7 km/h 14.5 km/h 83 % 0 mm 0 W/m2
04:53 3.3 °C 0.7 °C 1009.7 hPa NW 14.5 km/h 29 km/h 83 % 0 mm 0 W/m2
04:58 3.2 °C 0.6 °C 1009.7 hPa NW 14.5 km/h 22.5 km/h 83 % 0 mm 0 W/m2
05:03 3.2 °C 0.6 °C 1009.7 hPa NW 14.5 km/h 24.1 km/h 83 % 0 mm 0 W/m2
05:08 3.2 °C 0.6 °C 1009.7 hPa NW 16.1 km/h 25.7 km/h 83 % 0 mm 0 W/m2
05:13 3.2 °C 0.6 °C 1009.7 hPa NW 14.5 km/h 22.5 km/h 83 % 0 mm 0 W/m2
05:18 3.2 °C 0.6 °C 1009.7 hPa NW 11.3 km/h 19.3 km/h 83 % 0 mm 0 W/m2
05:23 3.1 °C 0.5 °C 1009.7 hPa NW 14.5 km/h 22.5 km/h 83 % 0 mm 0 W/m2
05:28 3.1 °C 0.7 °C 1009.7 hPa NW 14.5 km/h 22.5 km/h 84 % 0 mm 0 W/m2
05:33 3.1 °C 0.7 °C 1009.7 hPa NW 16.1 km/h 24.1 km/h 84 % 0 mm 0 W/m2
05:38 3.2 °C 0.8 °C 1009.7 hPa NW 16.1 km/h 25.7 km/h 84 % 0 mm 0 W/m2
05:43 3.2 °C 0.8 °C 1009.7 hPa NW 9.7 km/h 19.3 km/h 84 % 0 mm 0 W/m2
05:48 3.2 °C 0.8 °C 1010 hPa NW 9.7 km/h 17.7 km/h 84 % 0 mm 0 W/m2
05:58 3.2 °C 0.8 °C 1009.7 hPa WNW 14.5 km/h 22.5 km/h 84 % 0 mm 0 W/m2
06:03 3.3 °C 0.8 °C 1010 hPa NW 12.9 km/h 19.3 km/h 84 % 0 mm 0 W/m2
06:08 3.3 °C 0.8 °C 1010 hPa NW 12.9 km/h 20.9 km/h 84 % 0 mm 0 W/m2
06:18 3.2 °C 0.9 °C 1010 hPa NW 16.1 km/h 29 km/h 85 % 0 mm 0 W/m2
06:24 3.2 °C 0.9 °C 1010 hPa NW 14.5 km/h 20.9 km/h 85 % 0 mm 0 W/m2
06:34 3.2 °C 0.9 °C 1010 hPa NW 16.1 km/h 32.2 km/h 85 % 0 mm 0 W/m2
06:39 3.2 °C 0.8 °C 1010 hPa NW 12.9 km/h 22.5 km/h 84 % 0 mm 0 W/m2
06:44 3.2 °C 0.9 °C 1010 hPa NW 17.7 km/h 25.7 km/h 85 % 0 mm 0 W/m2
07:14 3 °C 0.7 °C 1010 hPa WNW 14.5 km/h 22.5 km/h 85 % 0 mm 0 W/m2
07:19 3 °C 0.7 °C 1010.4 hPa NW 14.5 km/h 25.7 km/h 85 % 0 mm 0 W/m2
07:24 3.1 °C 1 °C 1010.4 hPa NW 14.5 km/h 24.1 km/h 86 % 0 mm 0 W/m2
07:39 3.1 °C 1.2 °C 1010.4 hPa NW 14.5 km/h 25.7 km/h 87 % 0 mm 0 W/m2
07:49 3.1 °C 1.2 °C 1010.7 hPa NW 14.5 km/h 24.1 km/h 87 % 0 mm 0 W/m2
07:54 3.1 °C 1 °C 1010.7 hPa NW 12.9 km/h 20.9 km/h 86 % 0 mm 0 W/m2
07:59 3.1 °C 1 °C 1010.7 hPa NW 11.3 km/h 20.9 km/h 86 % 0 mm 5 W/m2
08:04 3 °C 0.9 °C 1010.7 hPa NW 11.3 km/h 16.1 km/h 86 % 0 mm 5 W/m2
08:12 3.1 °C 1.2 °C 1010.7 hPa NW 12.9 km/h 24.1 km/h 87 % 0 mm 9 W/m2
08:27 3.1 °C 1.2 °C 1011.1 hPa NW 11.3 km/h 20.9 km/h 87 % 0 mm 18 W/m2
08:32 3.1 °C 1.2 °C 1010.7 hPa NW 9.7 km/h 19.3 km/h 87 % 0 mm 23 W/m2
08:37 3.2 °C 1.2 °C 1011.1 hPa NW 9.7 km/h 19.3 km/h 87 % 0 mm 18 W/m2
08:48 3.2 °C 1.1 °C 1011.1 hPa NW 9.7 km/h 17.7 km/h 86 % 0 mm 32 W/m2
08:53 3.2 °C 1.1 °C 1011.4 hPa NW 8 km/h 16.1 km/h 86 % 0 mm 42 W/m2
09:00 3.3 °C 1.2 °C 1011.4 hPa NW 11.3 km/h 14.5 km/h 86 % 0 mm 28 W/m2
09:05 3.3 °C 1.2 °C 1011.4 hPa NW 9.7 km/h 19.3 km/h 86 % 0 mm 28 W/m2
09:10 3.3 °C 1.2 °C 1011.4 hPa NW 11.3 km/h 20.9 km/h 86 % 0 mm 28 W/m2
09:15 3.3 °C 1.2 °C 1011.4 hPa NW 12.9 km/h 20.9 km/h 86 % 0 mm 32 W/m2
09:20 3.4 °C 1.3 °C 1011.4 hPa NW 12.9 km/h 20.9 km/h 86 % 0 mm 65 W/m2
09:35 3.5 °C 1.4 °C 1011.4 hPa NW 11.3 km/h 19.3 km/h 86 % 0 mm 44 W/m2
09:45 3.7 °C 1.6 °C 1011.7 hPa NNW 9.7 km/h 17.7 km/h 86 % 0 mm 49 W/m2
09:50 3.7 °C 1.6 °C 1011.7 hPa NNW 14.5 km/h 20.9 km/h 86 % 0 mm 70 W/m2
09:56 3.8 °C 1.7 °C 1011.4 hPa NNW 14.5 km/h 22.5 km/h 86 % 0 mm 42 W/m2
10:01 3.9 °C 1.8 °C 1011.7 hPa NNW 17.7 km/h 29 km/h 86 % 0 mm 70 W/m2
10:11 4.3 °C 2.2 °C 1011.7 hPa NNW 11.3 km/h 24.1 km/h 86 % 0 mm 130 W/m2
10:16 4.4 °C 2.1 °C 1011.7 hPa NNW 11.3 km/h 20.9 km/h 85 % 0 mm 83 W/m2
10:17 4.5 °C 2.2 °C 1011.7 hPa NNW 12.9 km/h 25.7 km/h 85 % 0 mm 91 W/m2
10:22 4.6 °C 2.3 °C 1011.7 hPa NW 14.5 km/h 19.3 km/h 85 % 0 mm 95 W/m2
10:27 4.6 °C 2.3 °C 1012.1 hPa NNW 9.7 km/h 22.5 km/h 85 % 0 mm 98 W/m2
10:32 4.7 °C 2.4 °C 1012.1 hPa NNW 14.5 km/h 22.5 km/h 85 % 0 mm 151 W/m2
10:37 4.8 °C 2.5 °C 1012.1 hPa NNW 14.5 km/h 25.7 km/h 85 % 0 mm 79 W/m2
10:42 4.8 °C 2.5 °C 1011.7 hPa NNW 17.7 km/h 33.8 km/h 85 % 0 mm 299 W/m2
10:57 5 °C 2.5 °C 1012.1 hPa NNW 20.9 km/h 33.8 km/h 84 % 0 mm 257 W/m2
11:02 5.1 °C 2.6 °C 1012.1 hPa NNW 19.3 km/h 38.6 km/h 84 % 0 mm 257 W/m2
11:07 5.1 °C 2.6 °C 1012.1 hPa NNW 14.5 km/h 29 km/h 84 % 0 mm 107 W/m2
11:12 5.2 °C 2.7 °C 1012.1 hPa NNW 17.7 km/h 29 km/h 84 % 0 mm 130 W/m2
11:17 5.2 °C 2.7 °C 1012.1 hPa NNW 19.3 km/h 29 km/h 84 % 0 mm 257 W/m2
11:27 5.2 °C 2.7 °C 1012.4 hPa NNW 14.5 km/h 22.5 km/h 84 % 0 mm 113 W/m2
11:37 5.2 °C 2.7 °C 1012.4 hPa NNW 19.3 km/h 33.8 km/h 84 % 0 mm 93 W/m2
11:47 5.2 °C 2.7 °C 1012.4 hPa North 14.5 km/h 22.5 km/h 84 % 0 mm 135 W/m2
11:57 5.4 °C 2.9 °C 1012.4 hPa NNW 12.9 km/h 25.7 km/h 84 % 0 mm 179 W/m2
12:02 5.4 °C 2.7 °C 1012.4 hPa NNW 17.7 km/h 29 km/h 83 % 0 mm 309 W/m2
12:12 5.7 °C 3.1 °C 1012.4 hPa NNW 12.9 km/h 24.1 km/h 83 % 0 mm 178 W/m2
12:17 5.8 °C 3.1 °C 1012.4 hPa NNW 14.5 km/h 22.5 km/h 83 % 0 mm 113 W/m2
12:22 5.6 °C 2.8 °C 1012.4 hPa NNW 14.5 km/h 24.1 km/h 82 % 0 mm 142 W/m2
12:27 5.6 °C 2.9 °C 1012.4 hPa NNW 11.3 km/h 19.3 km/h 83 % 0 mm 84 W/m2
12:32 5.5 °C 2.8 °C 1012.4 hPa North 17.7 km/h 30.6 km/h 83 % 0 mm 278 W/m2
12:37 5.5 °C 3 °C 1012.4 hPa North 17.7 km/h 32.2 km/h 84 % 0 mm 128 W/m2
12:52 5.4 °C 3.1 °C 1012.4 hPa NNW 11.3 km/h 17.7 km/h 85 % 0 mm 79 W/m2
12:57 5.4 °C 3.1 °C 1012.4 hPa NNW 16.1 km/h 29 km/h 85 % 0 mm 58 W/m2
13:07 5.3 °C 2.8 °C 1012.4 hPa North 17.7 km/h 33.8 km/h 84 % 0 mm 74 W/m2
13:12 5.3 °C 2.8 °C 1012.4 hPa NNW 9.7 km/h 24.1 km/h 84 % 0 mm 56 W/m2
13:17 5.3 °C 2.8 °C 1012.4 hPa NNW 12.9 km/h 25.7 km/h 84 % 0 mm 88 W/m2
13:22 5.3 °C 2.7 °C 1012.8 hPa NNW 16.1 km/h 25.7 km/h 83 % 0 mm 86 W/m2
13:27 5.2 °C 2.7 °C 1012.8 hPa NNW 11.3 km/h 22.5 km/h 84 % 0 mm 46 W/m2
13:37 5.2 °C 2.6 °C 1012.8 hPa NNW 12.9 km/h 19.3 km/h 83 % 0 mm 109 W/m2
13:42 5.2 °C 2.6 °C 1013.1 hPa NNW 12.9 km/h 19.3 km/h 83 % 0 mm 95 W/m2
13:47 5.2 °C 2.6 °C 1012.8 hPa NW 14.5 km/h 20.9 km/h 83 % 0 mm 86 W/m2
13:52 5.2 °C 2.6 °C 1013.1 hPa NNW 16.1 km/h 25.7 km/h 83 % 0 mm 111 W/m2
13:58 5.3 °C 2.7 °C 1013.1 hPa NNW 14.5 km/h 29 km/h 83 % 0 mm 83 W/m2
14:08 5.2 °C 2.4 °C 1013.1 hPa NNW 17.7 km/h 29 km/h 82 % 0 mm 60 W/m2
14:13 5.2 °C 2.4 °C 1013.1 hPa NNW 16.1 km/h 22.5 km/h 82 % 0 mm 58 W/m2
14:19 5.2 °C 2.4 °C 1013.1 hPa NNW 12.9 km/h 20.9 km/h 82 % 0 mm 30 W/m2
14:24 5.1 °C 2.4 °C 1013.1 hPa NNW 9.7 km/h 19.3 km/h 83 % 0 mm 23 W/m2
14:34 5 °C 2.3 °C 1013.1 hPa NNW 14.5 km/h 22.5 km/h 83 % 0 mm 33 W/m2
14:39 4.9 °C 2.3 °C 1013.1 hPa NNW 11.3 km/h 20.9 km/h 83 % 0 mm 39 W/m2
14:44 4.9 °C 2.3 °C 1013.1 hPa North 6.4 km/h 12.9 km/h 83 % 0 mm 33 W/m2
14:49 4.9 °C 2.3 °C 1013.1 hPa North 11.3 km/h 20.9 km/h 83 % 0 mm 37 W/m2
14:54 4.9 °C 2.3 °C 1013.1 hPa NNW 11.3 km/h 24.1 km/h 83 % 0 mm 26 W/m2
15:09 4.9 °C 2.1 °C 1013.1 hPa NNW 8 km/h 14.5 km/h 82 % 0 mm 16 W/m2
15:14 4.9 °C 2.1 °C 1013.4 hPa NNW 9.7 km/h 17.7 km/h 82 % 0 mm 14 W/m2
15:24 4.8 °C 1.8 °C 1013.4 hPa NNW 4.8 km/h 19.3 km/h 81 % 0 mm 7 W/m2
15:29 4.8 °C 1.8 °C 1013.4 hPa NNW 9.7 km/h 22.5 km/h 81 % 0 mm 7 W/m2
15:39 4.8 °C 1.8 °C 1013.4 hPa NNW 11.3 km/h 20.9 km/h 81 % 0 mm 0 W/m2
15:44 4.8 °C 1.8 °C 1013.4 hPa NW 11.3 km/h 17.7 km/h 81 % 0 mm 0 W/m2
15:49 4.8 °C 1.7 °C 1013.4 hPa NW 8 km/h 19.3 km/h 80 % 0 mm 0 W/m2
16:04 4.7 °C 1.4 °C 1013.8 hPa NW 12.9 km/h 17.7 km/h 79 % 0 mm 0 W/m2
16:09 4.6 °C 1.3 °C 1013.8 hPa NNW 6.4 km/h 16.1 km/h 79 % 0 mm 0 W/m2
16:14 4.5 °C 1.2 °C 1013.8 hPa NW 8 km/h 17.7 km/h 79 % 0 mm 0 W/m2
16:19 4.4 °C 1.1 °C 1013.8 hPa NW 9.7 km/h 14.5 km/h 79 % 0 mm 0 W/m2
16:24 4.4 °C 1.1 °C 1014.1 hPa NW 6.4 km/h 12.9 km/h 79 % 0 mm 0 W/m2
16:29 4.3 °C 1 °C 1014.1 hPa NW 8 km/h 12.9 km/h 79 % 0 mm 0 W/m2
16:34 4.2 °C 0.9 °C 1014.1 hPa NW 11.3 km/h 16.1 km/h 79 % 0 mm 0 W/m2
16:39 4.2 °C 0.9 °C 1014.1 hPa NW 9.7 km/h 20.9 km/h 79 % 0 mm 0 W/m2
16:44 4 °C 0.7 °C 1014.4 hPa NW 12.9 km/h 19.3 km/h 79 % 0 mm 0 W/m2
16:54 3.8 °C 0.5 °C 1014.1 hPa NW 9.7 km/h 19.3 km/h 79 % 0 mm 0 W/m2
16:59 3.7 °C 0.4 °C 1014.1 hPa NW 8 km/h 20.9 km/h 79 % 0 mm 0 W/m2
17:04 3.7 °C 0.6 °C 1014.1 hPa NW 9.7 km/h 14.5 km/h 80 % 0 mm 0 W/m2
17:09 3.6 °C 0.3 °C 1014.1 hPa NW 9.7 km/h 14.5 km/h 79 % 0 mm 0 W/m2
17:14 3.4 °C 0.3 °C 1014.1 hPa WNW 9.7 km/h 14.5 km/h 80 % 0 mm 0 W/m2
17:19 3.4 °C 0.3 °C 1014.4 hPa WNW 8 km/h 14.5 km/h 80 % 0 mm 0 W/m2
17:24 3.3 °C 0.2 °C 1014.4 hPa WNW 8 km/h 19.3 km/h 80 % 0 mm 0 W/m2
17:29 3.1 °C 0 °C 1014.4 hPa WNW 9.7 km/h 16.1 km/h 80 % 0 mm 0 W/m2
17:40 2.9 °C -0.1 °C 1014.4 hPa WNW 9.7 km/h 14.5 km/h 81 % 0 mm 0 W/m2
17:45 2.8 °C -0.1 °C 1014.4 hPa NW 8 km/h 12.9 km/h 81 % 0 mm 0 W/m2
17:50 2.7 °C -0.2 °C 1014.4 hPa NW 8 km/h 14.5 km/h 81 % 0 mm 0 W/m2
17:55 2.6 °C -0.3 °C 1014.4 hPa WNW 4.8 km/h 11.3 km/h 81 % 0 mm 0 W/m2
18:00 2.6 °C -0.3 °C 1014.8 hPa WNW 9.7 km/h 16.1 km/h 81 % 0 mm 0 W/m2
18:05 2.5 °C -0.4 °C 1014.8 hPa WNW 9.7 km/h 14.5 km/h 81 % 0 mm 0 W/m2
18:10 2.4 °C -0.6 °C 1014.8 hPa WNW 8 km/h 14.5 km/h 81 % 0 mm 0 W/m2
18:20 2.3 °C -0.6 °C 1014.8 hPa NW 6.4 km/h 11.3 km/h 81 % 0 mm 0 W/m2
18:25 2.2 °C -0.7 °C 1014.4 hPa NW 6.4 km/h 12.9 km/h 81 % 0 mm 0 W/m2
18:30 2.1 °C -0.7 °C 1014.8 hPa NW 8 km/h 12.9 km/h 82 % 0 mm 0 W/m2
18:35 2.1 °C -0.7 °C 1014.8 hPa WNW 6.4 km/h 14.5 km/h 82 % 0 mm 0 W/m2
18:40 2.1 °C -0.7 °C 1014.8 hPa WNW 6.4 km/h 9.7 km/h 82 % 0 mm 0 W/m2
18:45 2 °C -0.8 °C 1014.8 hPa WNW 8 km/h 11.3 km/h 82 % 0 mm 0 W/m2
19:05 1.7 °C -0.9 °C 1015.1 hPa WNW 9.7 km/h 16.1 km/h 83 % 0 mm 0 W/m2
19:10 1.7 °C -0.9 °C 1015.1 hPa WNW 9.7 km/h 14.5 km/h 83 % 0 mm 0 W/m2
19:15 1.6 °C -1 °C 1015.1 hPa WNW 11.3 km/h 16.1 km/h 83 % 0 mm 0 W/m2
19:20 1.5 °C -1.1 °C 1014.8 hPa NW 11.3 km/h 17.7 km/h 83 % 0 mm 0 W/m2
19:40 1.5 °C -1.1 °C 1014.8 hPa WNW 12.9 km/h 25.7 km/h 83 % 0 mm 0 W/m2
19:45 1.5 °C -1.2 °C 1014.8 hPa WNW 14.5 km/h 22.5 km/h 82 % 0 mm 0 W/m2
19:50 1.6 °C -1.2 °C 1014.8 hPa WNW 12.9 km/h 19.3 km/h 82 % 0 mm 0 W/m2
20:05 1.5 °C -1.2 °C 1014.8 hPa WNW 11.3 km/h 19.3 km/h 82 % 0 mm 0 W/m2
20:10 1.5 °C -1.2 °C 1014.8 hPa WNW 16.1 km/h 24.1 km/h 82 % 0 mm 0 W/m2
20:15 1.5 °C -1.4 °C 1014.4 hPa NW 11.3 km/h 16.1 km/h 81 % 0 mm 0 W/m2
20:20 1.4 °C -1.5 °C 1014.8 hPa WNW 11.3 km/h 17.7 km/h 81 % 0 mm 0 W/m2
20:25 1.4 °C -1.5 °C 1014.8 hPa WNW 9.7 km/h 19.3 km/h 81 % 0 mm 0 W/m2
20:30 1.4 °C -1.5 °C 1014.8 hPa WNW 12.9 km/h 19.3 km/h 81 % 0 mm 0 W/m2
20:35 1.4 °C -1.5 °C 1014.8 hPa WNW 9.7 km/h 14.5 km/h 81 % 0 mm 0 W/m2
20:40 1.3 °C -1.6 °C 1014.8 hPa WNW 9.7 km/h 14.5 km/h 81 % 0 mm 0 W/m2
20:56 1.1 °C -1.6 °C 1014.8 hPa WNW 14.5 km/h 22.5 km/h 82 % 0 mm 0 W/m2
21:01 1 °C -1.7 °C 1014.4 hPa WNW 11.3 km/h 20.9 km/h 82 % 0 mm 0 W/m2
21:06 1 °C -1.9 °C 1014.4 hPa WNW 11.3 km/h 19.3 km/h 81 % 0 mm 0 W/m2
21:21 1 °C -1.9 °C 1014.8 hPa WNW 9.7 km/h 16.1 km/h 81 % 0 mm 0 W/m2
21:31 0.8 °C -2.1 °C 1014.8 hPa WNW 6.4 km/h 9.7 km/h 81 % 0 mm 0 W/m2
21:36 0.7 °C -2.2 °C 1014.4 hPa WNW 1.6 km/h 6.4 km/h 81 % 0 mm 0 W/m2
21:41 0.6 °C -2.3 °C 1014.8 hPa NW 3.2 km/h 16.1 km/h 81 % 0 mm 0 W/m2
21:46 0.5 °C -2.4 °C 1014.4 hPa WNW 6.4 km/h 12.9 km/h 81 % 0 mm 0 W/m2
21:51 0.4 °C -2.3 °C 1014.4 hPa WNW 6.4 km/h 11.3 km/h 82 % 0 mm 0 W/m2
21:56 0.4 °C -2.3 °C 1014.4 hPa WNW 6.4 km/h 12.9 km/h 82 % 0 mm 0 W/m2
22:01 0.4 °C -2.3 °C 1014.4 hPa WNW 9.7 km/h 19.3 km/h 82 % 0 mm 0 W/m2
22:06 0.4 °C -2.3 °C 1014.4 hPa WNW 11.3 km/h 16.1 km/h 82 % 0 mm 0 W/m2
22:16 0.6 °C -2.1 °C 1014.4 hPa WNW 11.3 km/h 17.7 km/h 82 % 0 mm 0 W/m2
22:36 0.5 °C -2.4 °C 1014.4 hPa WNW 8 km/h 12.9 km/h 81 % 0 mm 0 W/m2
22:46 0.4 °C -2.3 °C 1014.4 hPa WNW 8 km/h 11.3 km/h 82 % 0 mm 0 W/m2
22:52 0.3 °C -2.4 °C 1014.4 hPa WNW 9.7 km/h 14.5 km/h 82 % 0 mm 0 W/m2
22:57 0.3 °C -2.4 °C 1014.1 hPa WNW 8 km/h 16.1 km/h 82 % 0 mm 0 W/m2
23:02 0.2 °C -2.5 °C 1014.1 hPa WNW 11.3 km/h 17.7 km/h 82 % 0 mm 0 W/m2
23:12 0.2 °C -2.5 °C 1014.1 hPa WNW 8 km/h 11.3 km/h 82 % 0 mm 0 W/m2
23:27 0.1 °C -2.6 °C 1014.1 hPa WNW 6.4 km/h 12.9 km/h 82 % 0 mm 0 W/m2
23:28 0.1 °C -2.6 °C 1014.1 hPa WNW 6.4 km/h 11.3 km/h 82 % 0 mm 0 W/m2
23:33 0 °C -2.7 °C 1014.1 hPa WNW 8 km/h 14.5 km/h 82 % 0 mm 0 W/m2
23:38 -0.1 °C -2.7 °C 1014.1 hPa WNW 8 km/h 14.5 km/h 83 % 0 mm 0 W/m2
23:44 -0.1 °C -2.7 °C 1014.1 hPa WNW 9.7 km/h 16.1 km/h 83 % 0 mm 0 W/m2
23:49 -0.1 °C -2.7 °C 1014.1 hPa WNW 4.8 km/h 12.9 km/h 83 % 0 mm 0 W/m2
23:59 -0.1 °C -2.7 °C 1014.1 hPa WNW 9.7 km/h 16.1 km/h 83 % 0 mm 0 W/m2
Delerius-Weather
Compliments of Weather Underground - 2 mb

Data updates at regular intervals.